This is the latest recevied weather packets stored in our database for station/object OE9XVI-6. If no packets are shown the sender has not sent any weather packets the latest 10 day(s).
| Time | Temp. | Humidity | Pressure | Rain* | Wind** | Luminosity | Snow |
|---|---|---|---|---|---|---|---|
| 1778111329 | 6.67° C | 85% | 1011.8 hPa | 1.02 mm | - | - | - |
| 1778111210 | 6.67° C | 85% | 1011.8 hPa | 1.02 mm | - | - | - |
| 1778110610 | 6.67° C | 85% | 1011.8 hPa | 0.76 mm | - | - | - |
| 1778110010 | 6.67° C | 85% | 1011.9 hPa | 0.51 mm | - | - | - |
| 1778109410 | 6.67° C | 85% | 1011.8 hPa | 0.51 mm | - | - | - |
| 1778108810 | 6.67° C | 86% | 1011.8 hPa | 0.25 mm | - | - | - |
| 1778108210 | 7.22° C | 87% | 1011.8 hPa | 0.25 mm | - | - | - |
| 1778107610 | 7.22° C | 86% | 1011.8 hPa | 0 mm | - | - | - |
| 1778107010 | 7.22° C | 83% | 1011.6 hPa | 0 mm | - | - | - |
| 1778106410 | 7.78° C | 81% | 1011.6 hPa | 0 mm | - | - | - |
| 1778105810 | 7.78° C | 79% | 1011.6 hPa | 0 mm | - | - | - |
| 1778105210 | 7.78° C | 80% | 1011.6 hPa | 0 mm | - | - | - |
| 1778104610 | 7.78° C | 80% | 1011.5 hPa | 0 mm | - | - | - |
| 1778104010 | 7.78° C | 80% | 1011.4 hPa | 0 mm | - | - | - |
| 1778103410 | 7.78° C | 80% | 1011.3 hPa | 0 mm | - | - | - |
| 1778102810 | 7.78° C | 79% | 1011.4 hPa | 0 mm | - | - | - |
| 1778102210 | 8.33° C | 79% | 1011.3 hPa | 0 mm | - | - | - |
| 1778101610 | 8.33° C | 79% | 1011.3 hPa | 0 mm | - | - | - |
| 1778101010 | 8.33° C | 80% | 1011.3 hPa | 0 mm | - | - | - |
| 1778100410 | 7.78° C | 82% | 1011.2 hPa | 0 mm | - | - | - |
| 1778099810 | 7.78° C | 83% | 1011.2 hPa | 0 mm | - | - | - |
| 1778099210 | 8.89° C | 78% | 1011.2 hPa | 0 mm | - | - | - |
| 1778098610 | 8.89° C | 75% | 1011.1 hPa | 0 mm | - | - | - |
| 1778098010 | 9.44° C | 74% | 1010.9 hPa | 0 mm | - | - | - |
| 1778097410 | 9.44° C | 73% | 1010.9 hPa | 0 mm | - | - | - |
* Rain latest hour (hover to see other rain measurements)
** Current wind speed in m/s (hover to see current wind gust speed)